Latest Weather Observations for Gatton

IDQ60801

Issued at 9:32 pm EST Wednesday 27 May 2015 (issued every 30 minutes, with the page automatically refreshed every 10 minutes)

About weather observations | Map of weather stations | Latest weather observations for QLD | Other Formats
Station Details ID: 040082 Name: UNIVERSITY OF QUEENSLAND GATTON Lat: -27.54 Lon: 152.34 Height: 89.0 m
Data from the previous 72 hours. | See also: Recent months at Gatton
Date/Time
EST
Temp
°C
App
Temp
°C
Dew
Point
Rel
Hum
%
Delta-T
°C
Wind Press
QNH
hPa
Press
MSL
hPa
Rain
since 9 am
mm
Dir
 
Spd
km/h
Gust
km/h
Spd
kts
Gust
kts
27/09:30pm 11.1 9.6 9.2 88 1.0 WSW 7 9 4 5 - - 0.0
27/09:00pm 11.2 10.8 9.6 90 0.8 SSE 2 9 1 5 - - 0.0
27/08:30pm 11.8 11.9 10.0 89 0.9 CALM 0 0 0 0 - - 0.0
27/08:00pm 12.2 12.2 9.9 86 1.2 CALM 0 6 0 3 - - 0.0
27/07:30pm 12.7 12.7 9.7 82 1.5 CALM 0 0 0 0 - - 0.0
27/07:00pm 12.8 12.7 9.4 80 1.7 CALM 0 0 0 0 - - 0.0
27/06:30pm 14.1 14.2 10.3 78 2.0 CALM 0 6 0 3 - - 0.0
27/06:00pm 15.1 14.4 11.3 78 2.0 E 6 9 3 5 - - 0.0
27/05:30pm 16.2 16.4 10.5 69 3.0 CALM 0 0 0 0 - - 0.0
27/05:00pm 19.1 18.5 11.7 62 4.1 NNE 6 6 3 3 - - 0.0
27/04:30pm 21.1 20.5 12.3 57 5.0 N 7 9 4 5 - - 0.0
27/04:00pm 22.2 21.7 12.5 54 5.5 N 7 9 4 5 - - 0.0
27/03:30pm 22.8 21.9 11.5 49 6.3 N 7 13 4 7 - - 0.0
27/03:00pm 23.7 23.1 11.7 47 6.8 WNW 6 9 3 5 - - 0.0
27/02:30pm 23.2 22.4 10.9 46 6.9 NNE 6 9 3 5 - - 0.0
27/02:00pm 23.3 22.3 12.3 50 6.3 NNW 9 15 5 8 - - 0.0
27/01:30pm 22.6 21.4 11.7 50 6.1 N 9 17 5 9 - - 0.0
27/01:00pm 22.1 21.6 12.6 55 5.4 NNE 7 13 4 7 - - 0.0
27/12:30pm 21.7 20.2 12.0 54 5.5 ENE 11 13 6 7 - - 0.0
27/12:00pm 21.7 21.0 13.1 58 4.9 NNE 9 17 5 9 - - 0.0
27/11:30am 21.6 21.9 13.5 60 4.7 ENE 4 9 2 5 - - 0.0
27/11:00am 20.4 20.4 12.4 60 4.5 N 4 9 2 5 - - 0.0
27/10:30am 20.1 20.1 12.3 61 4.4 SSE 4 7 2 4 - - 0.0
27/10:00am 18.9 19.5 13.1 69 3.3 SSE 2 7 1 4 - - 0.0
27/09:30am 17.1 16.7 13.0 77 2.3 WSW 7 11 4 6 - - 0.0
27/09:00am 14.6 13.0 11.7 83 1.6 W 11 13 6 7 - - 0.0
27/08:30am 13.6 12.2 10.9 84 1.4 W 9 13 5 7 - - 0.0
27/08:00am 12.3 11.1 10.4 88 1.0 W 7 11 4 6 - - 0.0
27/07:30am 11.4 9.7 9.7 89 0.9 W 9 13 5 7 - - 0.0
27/07:00am 10.3 8.9 8.9 91 0.7 SW 6 9 3 5 - - 0.0
27/06:30am 10.1 7.8 8.9 92 0.6 W 11 13 6 7 - - 0.0
27/06:00am 10.4 8.2 9.2 92 0.6 WSW 11 15 6 8 - - 0.0
27/05:30am 10.9 9.2 9.8 93 0.6 W 9 13 5 7 - - 0.0
27/05:00am 10.5 8.7 9.4 93 0.6 W 9 11 5 6 - - 0.0
27/04:30am 10.6 8.4 9.5 93 0.6 W 11 15 6 8 - - 0.0
27/04:00am 10.6 8.8 9.4 92 0.6 W 9 11 5 6 - - 0.0
27/03:30am 11.0 9.6 9.6 91 0.7 W 7 11 4 6 - - 0.0
27/03:00am 11.3 9.6 9.7 90 0.8 WSW 9 13 5 7 - - 0.0
27/02:30am 11.4 9.4 10.1 92 0.7 WSW 11 15 6 8 - - 0.0
27/02:00am 10.7 8.9 9.5 92 0.6 W 9 13 5 7 - - 0.0
27/01:30am 10.5 8.3 9.3 92 0.6 W 11 13 6 7 - - 0.0
27/01:00am 10.7 8.5 9.5 92 0.6 WSW 11 13 6 7 - - 0.0
27/12:30am 11.1 9.4 9.7 91 0.7 WSW 9 11 5 6 - - 0.0
27/12:00am 11.2 9.5 9.9 92 0.7 W 9 11 5 6 - - 0.0
 
Date/Time
EST
Temp
°C
App
Temp
°C
Dew
Point
Rel
Hum
%
Delta-T
°C
Wind Press
QNH
hPa
Press
MSL
hPa
Rain
since 9 am
mm
Dir
 
Spd
km/h
Gust
km/h
Spd
kts
Gust
kts
26/11:30pm 11.6 10.0 10.3 92 0.7 WSW 9 11 5 6 - - 0.0
26/11:00pm 12.2 11.1 10.6 90 0.8 SW 7 9 4 5 - - 0.0
26/10:30pm 12.7 11.7 11.1 90 0.8 W 7 9 4 5 - - 0.0
26/10:00pm 13.1 12.2 11.5 90 0.9 W 7 9 4 5 - - 0.0
26/09:30pm 13.1 12.2 11.5 90 0.9 WNW 7 9 4 5 - - 0.0
26/09:00pm 13.5 13.5 11.2 86 1.2 ESE 2 11 1 6 - - 0.0
26/08:30pm 14.6 14.7 12.8 89 1.0 SW 4 9 2 5 - - 0.0
26/08:00pm 13.5 13.6 10.3 81 1.7 CALM 0 0 0 0 - - 0.0
26/07:30pm 14.5 13.8 11.3 81 1.7 WSW 6 7 3 4 - - 0.0
26/07:00pm 15.3 16.0 12.2 82 1.7 CALM 0 0 0 0 - - 0.0
26/06:30pm 15.7 16.3 11.9 78 2.1 CALM 0 0 0 0 - - 0.0
26/06:00pm 17.0 17.7 12.3 74 2.6 CALM 0 0 0 0 - - 0.0
26/05:30pm 18.5 19.3 12.7 69 3.3 CALM 0 0 0 0 - - 0.0
26/05:00pm 19.5 20.2 12.3 63 4.0 CALM 0 0 0 0 - - 0.0
26/04:30pm 19.9 19.5 12.9 64 4.0 N 7 7 4 4 - - 0.0
26/04:00pm 21.1 20.5 12.3 57 5.0 NE 7 9 4 5 - - 0.0
26/03:30pm 21.4 20.4 12.3 56 5.1 E 9 19 5 10 - - 0.0
26/03:00pm 21.7 20.5 11.7 53 5.6 NNE 9 13 5 7 - - 0.0
26/02:30pm 21.6 21.1 12.2 55 5.3 NNE 6 11 3 6 - - 0.0
26/02:00pm 21.2 20.5 11.5 54 5.4 N 6 11 3 6 - - 0.0
26/01:30pm 21.5 20.6 11.5 53 5.6 N 7 11 4 6 - - 0.0
26/01:00pm 21.7 20.7 11.1 51 5.9 WNW 7 11 4 6 - - 0.0
26/12:30pm 21.5 20.9 11.8 54 5.4 SE 6 11 3 6 - - 0.0
26/12:00pm 21.1 20.7 11.2 53 5.5 NNW 4 9 2 5 - - 0.0
26/11:30am 20.7 20.0 11.3 55 5.2 S 6 11 3 6 - - 0.0
26/11:00am 20.4 19.8 12.4 60 4.5 WNW 7 11 4 6 - - 0.0
26/10:30am 19.0 18.2 11.6 62 4.1 S 7 11 4 6 - - 0.0
26/10:00am 17.9 16.8 12.1 69 3.2 W 9 13 5 7 - - 0.0
26/09:30am 15.6 14.4 11.6 77 2.2 W 9 13 5 7 - - 0.0
26/09:00am 14.2 12.3 10.6 79 1.9 W 11 13 6 7 - - 0.0
26/08:30am 12.8 10.8 10.3 85 1.3 W 11 13 6 7 - - 0.0
26/08:00am 11.1 9.3 9.5 90 0.8 WSW 9 13 5 7 - - 0.0
26/07:30am 10.0 8.4 8.9 93 0.5 W 7 9 4 5 - - 0.0
26/07:00am 9.1 7.3 8.0 93 0.5 WSW 7 9 4 5 - - 0.0
26/06:30am 9.1 6.6 8.2 94 0.4 W 11 15 6 8 - - 0.0
26/06:00am 9.0 7.8 8.1 94 0.4 W 4 7 2 4 - - 0.0
26/05:30am 9.1 6.6 8.2 94 0.4 W 11 13 6 7 - - 0.0
26/05:00am 9.0 6.9 8.1 94 0.4 W 9 13 5 7 - - 0.0
26/04:30am 9.4 7.7 8.2 92 0.6 WSW 7 9 4 5 - - 0.0
26/04:00am 10.0 7.7 9.1 94 0.4 W 11 15 6 8 - - 0.0
26/03:30am 9.9 7.2 8.8 93 0.5 W 13 15 7 8 - - 0.0
26/03:00am 9.9 7.5 8.8 93 0.5 W 11 13 6 7 - - 0.0
26/02:30am 9.9 8.2 8.3 90 0.8 WSW 7 13 4 7 - - 0.0
26/02:00am 10.4 8.1 9.0 91 0.7 WSW 11 15 6 8 - - 0.0
26/01:30am 10.8 8.9 9.2 90 0.8 W 9 11 5 6 - - 0.0
26/01:00am 11.2 9.4 9.6 90 0.8 W 9 13 5 7 - - 0.0
26/12:30am 11.3 9.2 9.7 90 0.8 W 11 13 6 7 - - 0.0
26/12:00am 11.1 9.7 9.4 89 0.9 W 7 9 4 5 - - 0.0
 
Date/Time
EST
Temp
°C
App
Temp
°C
Dew
Point
Rel
Hum
%
Delta-T
°C
Wind Press
QNH
hPa
Press
MSL
hPa
Rain
since 9 am
mm
Dir
 
Spd
km/h
Gust
km/h
Spd
kts
Gust
kts
25/11:30pm 11.7 10.5 10.3 91 0.7 WSW 7 9 4 5 - - 0.0
25/11:00pm 10.6 9.1 8.5 87 1.0 WSW 6 7 3 4 - - 0.0
25/10:30pm 11.6 10.8 9.7 88 1.0 WSW 4 6 2 3 - - 0.0
25/10:00pm 12.3 12.4 10.0 86 1.2 CALM 0 0 0 0 - - 0.0
25/09:30pm 13.5 13.7 10.5 82 1.6 CALM 0 6 0 3 - - 0.0
25/09:00pm 14.0 14.2 10.4 79 1.9 CALM 0 0 0 0 - - 0.0
25/08:30pm 15.4 15.8 11.2 76 2.3 CALM 0 0 0 0 - - 0.0
25/08:00pm 15.8 16.3 11.6 76 2.3 CALM 0 0 0 0 - - 0.0
25/07:30pm 16.1 16.5 11.3 73 2.6 CALM 0 0 0 0 - - 0.0
25/07:00pm 16.0 16.3 11.0 72 2.7 CALM 0 0 0 0 - - 0.0
25/06:30pm 16.4 15.4 10.9 70 3.0 E 7 11 4 6 - - 0.0
25/06:00pm 16.2 14.4 10.7 70 2.9 E 11 13 6 7 - - 0.0
25/05:30pm 17.5 15.2 10.6 64 3.7 E 13 17 7 9 - - 0.0
25/05:00pm 19.0 16.9 11.1 60 4.3 E 13 17 7 9 - - 0.0
25/04:30pm 20.4 18.8 11.6 57 4.9 ESE 11 17 6 9 - - 0.0
25/04:00pm 21.8 18.8 11.8 53 5.6 E 19 24 10 13 - - 0.0
25/03:30pm 20.5 19.6 11.4 56 5.0 NNE 7 9 4 5 - - 0.0
25/03:00pm 21.2 19.1 11.2 53 5.5 E 13 17 7 9 - - 0.0
25/02:30pm 21.3 18.9 9.9 48 6.2 ESE 13 19 7 10 - - 0.0
25/02:00pm 22.4 19.2 11.2 49 6.2 ESE 19 22 10 12 - - 0.0
25/01:30pm 22.7 20.9 12.0 50 6.1 NE 13 19 7 10 - - 0.0
25/01:00pm 22.1 19.3 11.5 51 5.9 ESE 17 24 9 13 - - 0.0
25/12:30pm 22.5 19.5 10.6 47 6.6 ENE 17 28 9 15 - - 0.0
25/12:00pm 21.1 19.0 11.2 53 5.5 ENE 13 20 7 11 - - 0.0
25/11:30am 21.5 19.0 11.2 52 5.7 ESE 15 20 8 11 - - 0.0
25/11:00am 21.5 19.8 12.4 56 5.2 ESE 13 32 7 17 - - 0.0
25/10:30am 20.5 18.8 12.5 60 4.5 SE 13 20 7 11 - - 0.0
25/10:00am 19.3 18.5 11.8 62 4.2 SW 7 11 4 6 - - 0.0
25/09:30am 17.2 16.3 10.8 66 3.4 S 6 9 3 5 - - 0.0
25/09:00am 14.9 13.4 10.5 75 2.3 W 9 13 5 7 - - 0.0
25/08:30am 13.1 11.1 10.1 82 1.6 WSW 11 13 6 7 - - 0.0
25/08:00am 11.9 9.7 9.3 84 1.3 W 11 13 6 7 - - 0.0
25/07:30am 10.6 8.6 8.7 88 0.9 WSW 9 13 5 7 - - 0.0
25/07:00am 9.7 7.6 8.1 90 0.8 WSW 9 13 5 7 - - 0.0
25/06:30am 9.6 7.4 8.0 90 0.8 W 9 13 5 7 - - 0.0
25/06:00am 10.3 8.2 8.4 88 0.9 W 9 11 5 6 - - 0.0
25/05:30am 10.2 8.2 8.6 90 0.8 W 9 13 5 7 - - 0.0
25/05:00am 9.9 7.9 8.5 91 0.7 W 9 11 5 6 - - 0.0
25/04:30am 9.5 7.7 7.9 90 0.8 WSW 7 13 4 7 - - 0.0
25/04:00am 9.4 6.8 7.8 90 0.8 WSW 11 13 6 7 - - 0.0
25/03:30am 9.7 7.2 8.1 90 0.8 W 11 15 6 8 - - 0.0
25/03:00am 9.7 7.2 8.0 89 0.8 W 11 15 6 8 - - 0.0
25/02:30am 10.0 7.5 8.3 89 0.8 W 11 15 6 8 - - 0.0
25/02:00am 10.4 8.3 8.3 87 1.0 WSW 9 13 5 7 - - 0.0
25/01:30am 10.4 7.6 8.5 88 0.9 WSW 13 17 7 9 - - 0.0
25/01:00am 10.5 8.4 8.4 87 1.0 WSW 9 11 5 6 - - 0.0
25/12:30am 10.9 8.9 8.8 87 1.0 WSW 9 11 5 6 - - 0.0
25/12:00am 11.1 9.3 9.4 89 0.9 WSW 9 11 5 6 - - 0.0
 
Date/Time
EST
Temp
°C
App
Temp
°C
Dew
Point
Rel
Hum
%
Delta-T
°C
Wind Press
QNH
hPa
Press
MSL
hPa
Rain
since 9 am
mm
Dir
 
Spd
km/h
Gust
km/h
Spd
kts
Gust
kts
24/11:30pm 10.7 9.2 8.5 86 1.1 WSW 6 9 3 5 - - 0.0
24/11:00pm 10.9 10.6 8.7 86 1.1 CALM 0 0 0 0 - - 0.0
24/10:30pm 10.9 9.5 8.8 87 1.0 WNW 6 9 3 5 - - 0.0
24/10:00pm 11.7 11.0 8.6 81 1.5 WSW 2 7 1 4 - - 0.0

Other Formats:

Comma delimited format used in spreadsheet applications
http://www.bom.gov.au/fwo/IDQ60801/IDQ60801.94562.axf

JavaScript Object Notation format (JSON) in row-major order
http://www.bom.gov.au/fwo/IDQ60801/IDQ60801.94562.json